createdAt,value
2019-03-08T00:00:37.347Z,0.00
2019-03-08T00:01:37.420Z,0.00
2019-03-08T00:02:37.335Z,0.00
2019-03-08T00:03:37.331Z,0.00
2019-03-08T00:04:37.302Z,0.00
2019-03-08T00:05:37.345Z,0.00
2019-03-08T00:06:37.276Z,0.00
2019-03-08T00:07:37.396Z,0.00
2019-03-08T00:08:37.253Z,0.00
2019-03-08T00:09:37.271Z,0.00
2019-03-08T00:10:37.238Z,0.00
2019-03-08T00:11:37.283Z,0.00
2019-03-08T00:12:37.228Z,0.00
2019-03-08T00:13:37.299Z,0.00
2019-03-08T00:14:37.191Z,0.00
2019-03-08T00:15:37.222Z,0.00
2019-03-08T00:16:37.209Z,0.00
2019-03-08T00:17:37.263Z,0.00
2019-03-08T00:18:37.145Z,0.00
2019-03-08T00:19:37.276Z,0.00
2019-03-08T00:20:37.126Z,0.00
2019-03-08T00:21:37.149Z,0.00
2019-03-08T00:22:37.117Z,0.00
2019-03-08T00:23:37.165Z,0.00
2019-03-08T00:24:37.081Z,0.00
2019-03-08T00:25:37.175Z,0.00
2019-03-08T00:26:37.063Z,0.00
2019-03-08T00:27:37.129Z,0.00
2019-03-08T00:28:37.043Z,0.00
2019-03-08T00:29:37.101Z,0.00
2019-03-08T00:30:37.015Z,0.00
2019-03-08T00:31:37.115Z,0.00
2019-03-08T00:32:37.011Z,0.00
2019-03-08T00:33:37.026Z,0.00
2019-03-08T00:34:36.992Z,0.00
2019-03-08T00:35:37.039Z,0.00
2019-03-08T00:36:36.949Z,0.00
2019-03-08T00:37:38.005Z,0.00
2019-03-08T00:38:36.945Z,0.00
2019-03-08T00:39:36.963Z,0.00
2019-03-08T00:40:36.905Z,0.00
2019-03-08T00:41:36.981Z,0.00
2019-03-08T00:42:36.902Z,0.00
2019-03-08T00:43:36.894Z,0.00
2019-03-08T00:44:36.867Z,0.00
2019-03-08T00:45:36.903Z,0.00
2019-03-08T00:46:36.840Z,0.00
2019-03-08T00:47:36.948Z,0.00
2019-03-08T00:48:36.819Z,0.00
2019-03-08T00:49:36.827Z,0.00
2019-03-08T00:50:36.801Z,0.00
2019-03-08T00:51:36.844Z,0.00
2019-03-08T00:52:36.775Z,0.00
2019-03-08T00:53:36.885Z,0.00
2019-03-08T00:54:36.754Z,0.00
2019-03-08T00:55:43.730Z,0.00
2019-03-08T00:56:36.738Z,0.00
2019-03-08T00:57:36.780Z,0.00
2019-03-08T00:58:36.735Z,0.00
2019-03-08T00:59:37.716Z,0.00
2019-03-08T01:00:36.687Z,0.00
2019-03-08T01:01:36.704Z,0.00
2019-03-08T01:02:36.671Z,0.00
2019-03-08T01:03:36.753Z,0.00
2019-03-08T01:04:36.645Z,0.00
2019-03-08T01:05:36.733Z,0.00
2019-03-08T01:06:36.626Z,0.00
2019-03-08T01:07:36.653Z,0.00
2019-03-08T01:08:36.623Z,0.00
2019-03-08T01:09:36.667Z,0.00
2019-03-08T01:10:36.580Z,0.00
2019-03-08T01:11:36.670Z,0.00
2019-03-08T01:12:36.566Z,0.00
2019-03-08T01:13:36.618Z,0.00
2019-03-08T01:14:36.551Z,0.00
2019-03-08T01:15:36.642Z,0.00
2019-03-08T01:16:36.520Z,0.00
2019-03-08T01:17:36.617Z,0.00
2019-03-08T01:18:36.509Z,0.00
2019-03-08T01:19:36.522Z,0.00
2019-03-08T01:20:36.483Z,0.00
2019-03-08T01:21:36.535Z,0.00
2019-03-08T01:22:36.452Z,0.00
2019-03-08T01:23:36.513Z,0.00
2019-03-08T01:24:36.446Z,0.00
2019-03-08T01:25:36.495Z,0.00
2019-03-08T01:26:36.472Z,0.00
2019-03-08T01:27:36.480Z,0.00
2019-03-08T01:28:36.405Z,0.00
2019-03-08T01:29:36.509Z,0.00
2019-03-08T01:30:36.365Z,0.00
2019-03-08T01:31:36.406Z,0.00
2019-03-08T01:32:36.353Z,0.00
2019-03-08T01:33:36.452Z,0.00
2019-03-08T01:34:36.321Z,0.00
2019-03-08T01:35:36.340Z,0.00
2019-03-08T01:36:36.316Z,0.00
2019-03-08T01:37:36.340Z,0.00
2019-03-08T01:38:36.310Z,0.00
2019-03-08T01:39:36.354Z,0.00
2019-03-08T01:40:36.257Z,0.00
2019-03-08T01:41:36.332Z,0.00
2019-03-08T01:42:36.237Z,0.00
2019-03-08T01:43:37.335Z,0.00
2019-03-08T01:44:36.212Z,0.00
2019-03-08T01:45:38.237Z,0.00
2019-03-08T01:46:36.192Z,0.00
2019-03-08T01:47:36.209Z,0.00
2019-03-08T01:48:36.209Z,0.00
2019-03-08T01:49:36.229Z,0.00
2019-03-08T01:50:36.145Z,0.00
2019-03-08T01:51:36.231Z,0.00
2019-03-08T01:52:36.125Z,0.00
2019-03-08T01:53:36.141Z,0.00
2019-03-08T01:54:36.118Z,0.00
2019-03-08T01:55:36.156Z,0.00
2019-03-08T01:56:36.081Z,0.00
2019-03-08T01:57:36.167Z,0.00
2019-03-08T01:58:36.066Z,0.00
2019-03-08T01:59:36.109Z,0.00
2019-03-08T02:00:36.061Z,0.00
2019-03-08T02:01:36.093Z,0.00
2019-03-08T02:02:36.017Z,0.00
2019-03-08T02:03:36.110Z,0.00
2019-03-08T02:04:36.012Z,0.00
2019-03-08T02:05:36.018Z,0.00
2019-03-08T02:06:35.975Z,0.00
2019-03-08T02:07:36.034Z,0.00
2019-03-08T02:08:35.949Z,0.00
2019-03-08T02:09:35.978Z,0.00
2019-03-08T02:10:35.934Z,0.00
2019-03-08T02:11:35.956Z,0.00
2019-03-08T02:12:35.913Z,0.00
2019-03-08T02:13:35.973Z,0.00
2019-03-08T02:14:35.905Z,0.00
2019-03-08T02:15:35.989Z,0.00
2019-03-08T02:16:35.875Z,0.00
2019-03-08T02:17:35.896Z,0.00
2019-03-08T02:18:35.844Z,0.00
2019-03-08T02:19:35.945Z,0.00
2019-03-08T02:20:35.818Z,0.00
2019-03-08T02:21:35.823Z,0.00
2019-03-08T02:22:35.803Z,0.00
2019-03-08T02:23:35.843Z,0.00
2019-03-08T02:24:35.796Z,0.00
2019-03-08T02:25:36.875Z,0.00
2019-03-08T02:26:35.761Z,0.00
2019-03-08T02:27:43.859Z,0.00
2019-03-08T02:28:35.755Z,0.00
2019-03-08T02:29:41.761Z,0.00
2019-03-08T02:30:35.715Z,0.00
2019-03-08T02:31:37.744Z,0.00
2019-03-08T02:32:35.688Z,0.00
2019-03-08T02:33:35.704Z,0.00
2019-03-08T02:34:35.704Z,0.00
2019-03-08T02:35:35.722Z,0.00
2019-03-08T02:36:35.646Z,0.00
2019-03-08T02:37:35.724Z,0.00
2019-03-08T02:38:35.625Z,0.00
2019-03-08T02:39:35.677Z,0.00
2019-03-08T02:40:35.625Z,0.00
2019-03-08T02:41:35.654Z,0.00
2019-03-08T02:42:35.587Z,0.00
2019-03-08T02:43:35.668Z,0.00
2019-03-08T02:44:35.574Z,0.00
2019-03-08T02:45:35.602Z,0.00
2019-03-08T02:46:35.545Z,0.00
2019-03-08T02:47:35.588Z,0.00
2019-03-08T02:48:35.542Z,0.00
2019-03-08T02:49:35.531Z,0.00
2019-03-08T02:50:35.501Z,0.00
2019-03-08T02:51:35.521Z,0.00
2019-03-08T02:52:35.486Z,0.00
2019-03-08T02:53:35.528Z,0.00
2019-03-08T02:54:35.476Z,0.00
2019-03-08T02:55:35.544Z,0.00
2019-03-08T02:56:35.431Z,0.00
2019-03-08T02:57:35.453Z,0.00
2019-03-08T02:58:35.412Z,0.00
2019-03-08T02:59:35.516Z,0.00
2019-03-08T03:00:35.388Z,0.00
2019-03-08T03:01:35.481Z,0.00
2019-03-08T03:02:35.368Z,0.00
2019-03-08T03:03:35.392Z,0.00
2019-03-08T03:04:35.360Z,0.00
2019-03-08T03:05:35.407Z,0.00
2019-03-08T03:06:35.336Z,0.00
2019-03-08T03:07:35.433Z,0.00
2019-03-08T03:08:35.305Z,0.00
2019-03-08T03:09:35.383Z,0.00
2019-03-08T03:10:35.292Z,0.00
2019-03-08T03:11:35.356Z,0.00
2019-03-08T03:12:35.256Z,0.00
2019-03-08T03:13:35.364Z,0.00
2019-03-08T03:14:35.254Z,0.00
2019-03-08T03:15:35.275Z,0.00
2019-03-08T03:16:35.221Z,0.00
2019-03-08T03:17:35.292Z,0.00
2019-03-08T03:18:35.194Z,0.00
2019-03-08T03:19:35.345Z,0.00
2019-03-08T03:20:35.184Z,0.00
2019-03-08T03:21:35.216Z,0.00
2019-03-08T03:22:35.164Z,0.00
2019-03-08T03:23:35.250Z,0.00
2019-03-08T03:24:35.143Z,0.00
2019-03-08T03:25:35.186Z,0.00
2019-03-08T03:26:35.114Z,0.00
2019-03-08T03:27:35.153Z,0.00
2019-03-08T03:28:35.100Z,0.00
2019-03-08T03:29:35.172Z,0.00
2019-03-08T03:30:35.077Z,0.00
2019-03-08T03:31:35.123Z,0.00
2019-03-08T03:32:35.044Z,0.00
2019-03-08T03:33:35.099Z,0.00
2019-03-08T03:34:35.026Z,0.00
2019-03-08T03:35:35.155Z,0.00
2019-03-08T03:36:35.002Z,0.00
2019-03-08T03:37:35.021Z,0.00
2019-03-08T03:38:34.986Z,0.00
2019-03-08T03:39:35.047Z,0.00
2019-03-08T03:40:34.975Z,0.00
2019-03-08T03:41:35.046Z,0.00
2019-03-08T03:42:34.947Z,0.00
2019-03-08T03:43:34.980Z,0.00
2019-03-08T03:44:34.913Z,0.00
2019-03-08T03:45:35.005Z,0.00
2019-03-08T03:46:34.896Z,0.00
2019-03-08T03:47:35.000Z,0.00
2019-03-08T03:48:34.883Z,0.00
2019-03-08T03:49:34.895Z,0.00
2019-03-08T03:50:34.859Z,0.00
2019-03-08T03:51:34.917Z,0.00
2019-03-08T03:52:34.822Z,0.00
2019-03-08T03:53:34.917Z,0.00
2019-03-08T03:54:34.817Z,0.00
2019-03-08T03:55:34.868Z,0.00
2019-03-08T03:56:34.785Z,0.00
2019-03-08T03:57:34.847Z,0.00
2019-03-08T03:58:34.757Z,0.00
2019-03-08T03:59:34.862Z,0.00
2019-03-08T04:00:34.756Z,0.00
2019-03-08T04:01:41.736Z,0.00
2019-03-08T04:02:34.721Z,0.00
2019-03-08T04:03:41.236Z,0.00
2019-03-08T04:04:34.697Z,0.00
2019-03-08T04:05:34.730Z,0.00
2019-03-08T04:06:34.681Z,0.00
2019-03-08T04:07:34.722Z,0.00
2019-03-08T04:08:34.656Z,0.00
2019-03-08T04:09:34.727Z,0.00
2019-03-08T04:10:34.640Z,0.00
2019-03-08T04:11:34.630Z,0.00
2019-03-08T04:12:34.605Z,0.00
2019-03-08T04:13:34.645Z,0.00
2019-03-08T04:14:34.603Z,0.00
2019-03-08T04:15:34.694Z,0.00
2019-03-08T04:16:34.567Z,0.00
2019-03-08T04:17:34.575Z,0.00
2019-03-08T04:18:34.546Z,0.00
2019-03-08T04:19:34.587Z,0.00
2019-03-08T04:20:34.542Z,0.00
2019-03-08T04:21:34.613Z,0.00
2019-03-08T04:22:34.507Z,0.00
2019-03-08T04:23:34.520Z,0.00
2019-03-08T04:24:34.476Z,0.00
2019-03-08T04:25:34.559Z,0.00
2019-03-08T04:26:34.451Z,0.00
2019-03-08T04:27:34.543Z,0.00
2019-03-08T04:28:34.432Z,0.00
2019-03-08T04:29:34.456Z,0.00
2019-03-08T04:30:34.424Z,0.00
2019-03-08T04:31:34.473Z,0.00
2019-03-08T04:32:34.397Z,0.00
2019-03-08T04:33:34.481Z,0.00
2019-03-08T04:34:34.382Z,0.00
2019-03-08T04:35:34.429Z,0.00
2019-03-08T04:36:34.343Z,0.00
2019-03-08T04:37:34.403Z,0.00
2019-03-08T04:38:34.323Z,0.00
2019-03-08T04:39:34.416Z,0.00
2019-03-08T04:40:34.333Z,0.00
2019-03-08T04:41:34.328Z,0.00
2019-03-08T04:42:34.281Z,0.00
2019-03-08T04:43:34.353Z,0.00
2019-03-08T04:44:34.267Z,0.00
2019-03-08T04:45:34.405Z,0.00
2019-03-08T04:46:34.236Z,0.00
2019-03-08T04:47:41.231Z,0.00
2019-03-08T04:48:34.216Z,0.00
2019-03-08T04:49:36.232Z,0.00
2019-03-08T04:50:34.216Z,0.00
2019-03-08T04:51:34.231Z,0.00
2019-03-08T04:52:34.183Z,0.00
2019-03-08T04:53:34.199Z,0.00
2019-03-08T04:54:34.153Z,0.00
2019-03-08T04:55:34.223Z,0.00
2019-03-08T04:56:34.161Z,0.00
2019-03-08T04:57:34.236Z,0.00
2019-03-08T04:58:34.144Z,0.00
2019-03-08T04:59:34.149Z,0.00
2019-03-08T05:00:34.098Z,0.00
2019-03-08T05:01:34.190Z,0.00
2019-03-08T05:02:34.068Z,0.00
2019-03-08T05:03:34.078Z,0.00
2019-03-08T05:04:34.057Z,0.00
2019-03-08T05:05:34.080Z,0.00
2019-03-08T05:06:34.031Z,0.00
2019-03-08T05:07:34.135Z,0.00
2019-03-08T05:08:33.996Z,0.00
2019-03-08T05:09:34.003Z,0.00
2019-03-08T05:10:33.978Z,0.00
2019-03-08T05:11:34.059Z,0.00
2019-03-08T05:12:33.979Z,0.00
2019-03-08T05:13:34.032Z,0.00
2019-03-08T05:14:33.932Z,0.00
2019-03-08T05:15:33.946Z,0.00
2019-03-08T05:16:33.935Z,0.00
2019-03-08T05:17:33.955Z,0.00
2019-03-08T05:18:33.902Z,0.00
2019-03-08T05:19:33.969Z,0.00
2019-03-08T05:20:33.866Z,0.00
2019-03-08T05:21:33.914Z,0.00
2019-03-08T05:22:33.845Z,0.00
2019-03-08T05:23:33.896Z,0.00
2019-03-08T05:24:33.846Z,0.00
2019-03-08T05:25:33.910Z,0.00
2019-03-08T05:26:33.819Z,0.00
2019-03-08T05:27:33.818Z,0.00
2019-03-08T05:28:33.779Z,0.00
2019-03-08T05:29:33.832Z,0.00
2019-03-08T05:30:33.812Z,0.00
2019-03-08T05:31:33.783Z,0.00
2019-03-08T05:32:33.746Z,0.00
2019-03-08T05:33:35.814Z,0.00
2019-03-08T05:34:33.717Z,0.00
2019-03-08T05:35:49.240Z,0.00
2019-03-08T05:36:33.711Z,0.00
2019-03-08T05:37:34.744Z,0.00
2019-03-08T05:38:33.673Z,0.00
2019-03-08T05:39:33.698Z,0.00
2019-03-08T05:40:33.699Z,0.00
2019-03-08T05:41:33.747Z,0.00
2019-03-08T05:42:33.629Z,0.00
2019-03-08T05:43:33.760Z,0.00
2019-03-08T05:44:33.609Z,0.00
2019-03-08T05:45:33.643Z,0.00
2019-03-08T05:46:33.614Z,0.00
2019-03-08T05:47:33.650Z,0.00
2019-03-08T05:48:33.575Z,0.00
2019-03-08T05:49:33.698Z,0.00
2019-03-08T05:50:33.602Z,0.00
2019-03-08T05:51:33.618Z,0.00
2019-03-08T05:52:33.529Z,0.00
2019-03-08T05:53:33.602Z,0.00
2019-03-08T05:54:33.547Z,0.00
2019-03-08T05:55:33.606Z,0.00
2019-03-08T05:56:33.504Z,0.00
2019-03-08T05:57:33.523Z,0.00
2019-03-08T05:58:33.463Z,0.00
2019-03-08T05:59:33.536Z,0.00
2019-03-08T06:00:35.248Z,5.62
2019-03-08T06:01:33.481Z,5.62
2019-03-08T06:02:33.415Z,5.62
2019-03-08T06:03:33.456Z,5.62
2019-03-08T06:04:33.407Z,5.62
2019-03-08T06:05:33.467Z,5.62
2019-03-08T06:06:33.427Z,5.62
2019-03-08T06:07:33.415Z,5.62
2019-03-08T06:08:33.373Z,5.62
2019-03-08T06:09:33.402Z,11.25
2019-03-08T06:10:33.348Z,11.25
2019-03-08T06:11:33.410Z,11.25
2019-03-08T06:12:33.339Z,11.25
2019-03-08T06:13:33.318Z,11.25
2019-03-08T06:14:33.305Z,11.25
2019-03-08T06:15:33.338Z,11.25
2019-03-08T06:16:33.267Z,16.88
2019-03-08T06:17:33.287Z,16.88
2019-03-08T06:18:33.248Z,16.88
2019-03-08T06:19:41.251Z,22.50
2019-03-08T06:20:33.260Z,22.50
2019-03-08T06:21:40.748Z,28.12
2019-03-08T06:22:33.233Z,22.50
2019-03-08T06:23:34.212Z,22.50
2019-03-08T06:24:33.175Z,16.88
2019-03-08T06:25:33.241Z,16.88
2019-03-08T06:26:33.154Z,16.88
2019-03-08T06:27:33.255Z,11.25
2019-03-08T06:28:33.127Z,11.25
2019-03-08T06:29:33.225Z,11.25
2019-03-08T06:30:33.137Z,16.88
2019-03-08T06:31:33.132Z,22.50
2019-03-08T06:32:33.107Z,22.50
2019-03-08T06:33:33.145Z,16.88
2019-03-08T06:34:33.062Z,16.88
2019-03-08T06:35:33.207Z,16.88
2019-03-08T06:36:33.045Z,16.88
2019-03-08T06:37:33.118Z,22.50
2019-03-08T06:38:33.024Z,22.50
2019-03-08T06:39:33.084Z,22.50
2019-03-08T06:40:32.997Z,28.12
2019-03-08T06:41:33.098Z,28.12
2019-03-08T06:42:32.999Z,28.12
2019-03-08T06:43:33.014Z,28.12
2019-03-08T06:44:32.962Z,28.12
2019-03-08T06:45:33.024Z,33.75
2019-03-08T06:46:32.939Z,33.75
2019-03-08T06:47:32.987Z,33.75
2019-03-08T06:48:32.914Z,39.38
2019-03-08T06:49:32.951Z,39.38
2019-03-08T06:50:32.896Z,39.38
2019-03-08T06:51:32.962Z,39.38
2019-03-08T06:52:32.885Z,39.38
2019-03-08T06:53:32.878Z,39.38
2019-03-08T06:54:32.884Z,39.38
2019-03-08T06:55:32.890Z,39.38
2019-03-08T06:56:32.881Z,39.38
2019-03-08T06:57:32.940Z,33.75
2019-03-08T06:58:32.810Z,45.00
2019-03-08T06:59:32.814Z,50.62
2019-03-08T07:00:32.803Z,50.62
2019-03-08T07:01:32.832Z,45.00
2019-03-08T07:02:32.792Z,45.00
2019-03-08T07:03:32.851Z,39.38
2019-03-08T07:04:32.750Z,45.00
2019-03-08T07:05:40.745Z,50.62
2019-03-08T07:06:32.724Z,45.00
2019-03-08T07:07:32.817Z,45.00
2019-03-08T07:08:32.710Z,56.25
2019-03-08T07:09:33.706Z,67.50
2019-03-08T07:10:32.679Z,67.50
2019-03-08T07:11:32.692Z,67.50
2019-03-08T07:12:32.688Z,67.50
2019-03-08T07:13:32.712Z,67.50
2019-03-08T07:14:32.641Z,73.12
2019-03-08T07:15:32.721Z,73.12
2019-03-08T07:16:32.607Z,84.38
2019-03-08T07:17:32.675Z,84.38
2019-03-08T07:18:32.584Z,90.00
2019-03-08T07:19:40.802Z,84.38
2019-03-08T07:20:33.567Z,78.75
2019-03-08T07:21:32.671Z,73.12
2019-03-08T07:22:32.572Z,73.12
2019-03-08T07:23:32.583Z,73.12
2019-03-08T07:24:32.538Z,67.50
2019-03-08T07:25:32.583Z,73.12
2019-03-08T07:26:32.516Z,67.50
2019-03-08T07:27:32.551Z,67.50
2019-03-08T07:28:32.492Z,73.12
2019-03-08T07:29:32.506Z,78.75
2019-03-08T07:30:32.464Z,90.00
2019-03-08T07:31:32.520Z,84.38
2019-03-08T07:32:32.470Z,61.88
2019-03-08T07:33:32.534Z,67.50
2019-03-08T07:34:32.419Z,84.38
2019-03-08T07:35:32.454Z,90.00
2019-03-08T07:36:32.397Z,84.38
2019-03-08T07:37:32.467Z,95.62
2019-03-08T07:38:32.389Z,90.00
2019-03-08T07:39:32.369Z,106.88
2019-03-08T07:40:32.350Z,112.50
2019-03-08T07:41:32.388Z,118.12
2019-03-08T07:42:32.324Z,123.75
2019-03-08T07:43:32.428Z,140.62
2019-03-08T07:44:32.300Z,151.88
2019-03-08T07:45:32.316Z,151.88
2019-03-08T07:46:32.281Z,151.88
2019-03-08T07:47:32.324Z,151.88
2019-03-08T07:48:32.278Z,146.25
2019-03-08T07:49:33.360Z,163.12
2019-03-08T07:50:32.237Z,163.12
2019-03-08T07:51:40.235Z,174.38
2019-03-08T07:52:32.220Z,168.75
2019-03-08T07:53:34.244Z,191.25
2019-03-08T07:54:32.202Z,208.12
2019-03-08T07:55:33.211Z,241.88
2019-03-08T07:56:32.175Z,264.38
2019-03-08T07:57:32.201Z,281.25
2019-03-08T07:58:32.165Z,281.25
2019-03-08T07:59:32.221Z,298.12
2019-03-08T08:00:32.140Z,292.50
2019-03-08T08:01:32.216Z,298.12
2019-03-08T08:02:32.128Z,286.88
2019-03-08T08:03:32.163Z,292.50
2019-03-08T08:04:32.092Z,281.25
2019-03-08T08:05:32.146Z,298.12
2019-03-08T08:06:32.064Z,331.88
2019-03-08T08:07:32.176Z,376.88
2019-03-08T08:08:32.073Z,433.12
2019-03-08T08:09:32.121Z,450.00
2019-03-08T08:10:32.040Z,753.75
2019-03-08T08:11:32.086Z,1085.62
2019-03-08T08:12:32.020Z,871.88
2019-03-08T08:13:32.028Z,832.50
2019-03-08T08:14:39.338Z,905.62
2019-03-08T08:15:33.103Z,748.12
2019-03-08T08:16:31.955Z,472.50
2019-03-08T08:17:32.020Z,399.38
2019-03-08T08:18:31.984Z,331.88
2019-03-08T08:19:32.032Z,286.88
2019-03-08T08:20:31.929Z,303.75
2019-03-08T08:21:31.953Z,331.88
2019-03-08T08:22:31.894Z,326.25
2019-03-08T08:23:39.830Z,348.75
2019-03-08T08:24:31.900Z,309.38
2019-03-08T08:25:36.995Z,292.50
2019-03-08T08:26:31.875Z,309.38
2019-03-08T08:27:31.917Z,360.00
2019-03-08T08:28:31.866Z,438.75
2019-03-08T08:29:35.048Z,455.62
2019-03-08T08:30:31.801Z,455.62
2019-03-08T08:31:31.812Z,455.62
2019-03-08T08:32:31.775Z,489.38
2019-03-08T08:33:31.888Z,551.25
2019-03-08T08:34:31.769Z,877.50
2019-03-08T08:35:32.928Z,517.50
2019-03-08T08:36:31.817Z,528.75
2019-03-08T08:37:31.773Z,382.50
2019-03-08T08:38:31.741Z,309.38
2019-03-08T08:39:33.738Z,298.12
2019-03-08T08:40:31.696Z,292.50
2019-03-08T08:41:32.693Z,315.00
2019-03-08T08:42:31.741Z,320.62
2019-03-08T08:43:31.688Z,275.62
2019-03-08T08:44:31.663Z,247.50
2019-03-08T08:45:31.704Z,236.25
2019-03-08T08:46:31.622Z,225.00
2019-03-08T08:47:31.781Z,191.25
2019-03-08T08:48:31.611Z,163.12
2019-03-08T08:49:31.707Z,180.00
2019-03-08T08:50:31.574Z,241.88
2019-03-08T08:51:31.636Z,298.12
2019-03-08T08:52:31.560Z,382.50
2019-03-08T08:53:31.648Z,438.75
2019-03-08T08:54:31.571Z,573.75
2019-03-08T08:55:31.560Z,601.88
2019-03-08T08:56:31.507Z,646.88
2019-03-08T08:57:31.573Z,736.88
2019-03-08T08:58:31.484Z,821.25
2019-03-08T08:59:31.533Z,731.25
2019-03-08T09:00:31.464Z,630.00
2019-03-08T09:01:31.524Z,652.50
2019-03-08T09:02:31.439Z,736.88
2019-03-08T09:03:31.514Z,787.50
2019-03-08T09:04:31.439Z,703.12
2019-03-08T09:05:31.431Z,573.75
2019-03-08T09:06:31.399Z,534.38
2019-03-08T09:07:31.440Z,511.88
2019-03-08T09:08:31.374Z,545.62
2019-03-08T09:09:31.485Z,635.62
2019-03-08T09:10:31.353Z,804.38
2019-03-08T09:11:31.367Z,1063.12
2019-03-08T09:12:31.339Z,1130.62
2019-03-08T09:13:31.378Z,1085.62
2019-03-08T09:14:31.324Z,1001.25
2019-03-08T09:15:31.389Z,1434.38
2019-03-08T09:16:31.287Z,2131.88
2019-03-08T09:17:31.301Z,1980.00
2019-03-08T09:18:31.265Z,2205.00
2019-03-08T09:19:31.347Z,2328.75
2019-03-08T09:20:31.247Z,2418.75
2019-03-08T09:21:40.238Z,2548.12
2019-03-08T09:22:31.222Z,2086.88
2019-03-08T09:23:31.239Z,1265.62
2019-03-08T09:24:31.219Z,1175.62
2019-03-08T09:25:47.740Z,2289.38
2019-03-08T09:26:33.018Z,2581.88
2019-03-08T09:27:32.192Z,2396.25
2019-03-08T09:28:31.164Z,1738.12
2019-03-08T09:29:31.210Z,2469.38
2019-03-08T09:30:31.143Z,2486.25
2019-03-08T09:31:31.196Z,2463.75
2019-03-08T09:32:31.112Z,2491.88
2019-03-08T09:33:31.206Z,2503.12
2019-03-08T09:34:31.132Z,2452.50
2019-03-08T09:35:31.121Z,2531.25
2019-03-08T09:36:31.067Z,2536.88
2019-03-08T09:37:31.132Z,2587.50
2019-03-08T09:38:31.051Z,2604.38
2019-03-08T09:39:31.247Z,2649.38
2019-03-08T09:40:31.041Z,2705.62
2019-03-08T09:41:31.162Z,2930.62
2019-03-08T09:42:31.002Z,2840.62
2019-03-08T09:43:31.070Z,1636.88
2019-03-08T09:44:30.995Z,1378.12
2019-03-08T09:45:31.013Z,961.88
2019-03-08T09:46:30.970Z,922.50
2019-03-08T09:47:30.995Z,871.88
2019-03-08T09:48:30.955Z,759.38
2019-03-08T09:49:31.008Z,652.50
2019-03-08T09:50:30.939Z,624.38
2019-03-08T09:51:30.923Z,635.62
2019-03-08T09:52:32.472Z,652.50
2019-03-08T09:53:30.933Z,708.75
2019-03-08T09:54:30.875Z,798.75
2019-03-08T09:55:30.979Z,928.12
2019-03-08T09:56:30.850Z,1125.00
2019-03-08T09:57:30.863Z,1158.75
2019-03-08T09:58:30.828Z,1125.00
2019-03-08T09:59:30.873Z,1816.88
2019-03-08T10:00:30.820Z,1980.00
2019-03-08T10:01:30.888Z,2075.62
2019-03-08T10:02:30.789Z,1726.88
2019-03-08T10:03:30.825Z,1822.50
2019-03-08T10:04:30.760Z,1586.25
2019-03-08T10:05:30.846Z,2013.75
2019-03-08T10:06:30.738Z,2565.00
2019-03-08T10:07:30.827Z,2806.88
2019-03-08T10:08:30.718Z,2992.50
2019-03-08T10:09:30.740Z,3054.38
2019-03-08T10:10:30.716Z,3105.00
2019-03-08T10:11:30.782Z,3150.00
2019-03-08T10:12:30.676Z,3245.62
2019-03-08T10:13:30.768Z,1828.12
2019-03-08T10:14:30.655Z,3076.88
2019-03-08T10:15:30.711Z,3054.38
2019-03-08T10:16:30.634Z,3144.38
2019-03-08T10:17:30.694Z,3116.25
2019-03-08T10:18:30.612Z,3155.62
2019-03-08T10:19:30.713Z,3166.88
2019-03-08T10:20:30.605Z,3178.12
2019-03-08T10:21:30.637Z,3166.88
2019-03-08T10:22:30.568Z,3285.00
2019-03-08T10:23:30.642Z,3240.00
2019-03-08T10:24:30.555Z,1546.88
2019-03-08T10:25:30.578Z,3425.62
2019-03-08T10:26:30.521Z,3403.12
2019-03-08T10:27:37.774Z,1271.25
2019-03-08T10:28:31.503Z,1147.50
2019-03-08T10:29:30.580Z,2413.12
2019-03-08T10:30:31.993Z,995.62
2019-03-08T10:31:30.487Z,838.12
2019-03-08T10:32:37.059Z,1035.00
2019-03-08T10:33:31.532Z,2548.12
2019-03-08T10:34:30.430Z,3661.88
2019-03-08T10:35:30.544Z,1485.00
2019-03-08T10:36:30.414Z,905.62
2019-03-08T10:37:30.419Z,877.50
2019-03-08T10:38:30.390Z,3661.88
2019-03-08T10:39:31.453Z,3673.12
2019-03-08T10:40:30.390Z,1918.12
2019-03-08T10:41:30.453Z,1108.12
2019-03-08T10:42:30.348Z,3195.00
2019-03-08T10:43:30.358Z,3639.38
2019-03-08T10:44:30.319Z,3256.88
2019-03-08T10:45:30.398Z,3718.12
2019-03-08T10:46:30.303Z,3825.00
2019-03-08T10:47:31.196Z,3780.00
2019-03-08T10:48:30.282Z,2255.62
2019-03-08T10:49:30.302Z,1260.00
2019-03-08T10:50:30.264Z,1929.38
2019-03-08T10:51:32.287Z,3622.50
2019-03-08T10:52:30.236Z,1164.38
2019-03-08T10:53:31.244Z,1350.00
2019-03-08T10:54:30.211Z,990.00
2019-03-08T10:55:30.232Z,675.00
2019-03-08T10:56:30.211Z,573.75
2019-03-08T10:57:30.249Z,517.50
2019-03-08T10:58:30.173Z,495.00
2019-03-08T10:59:31.395Z,495.00
2019-03-08T11:00:30.146Z,534.38
2019-03-08T11:01:30.201Z,573.75
2019-03-08T11:02:30.128Z,596.25
2019-03-08T11:03:30.186Z,601.88
2019-03-08T11:04:30.107Z,607.50
2019-03-08T11:05:30.199Z,618.75
2019-03-08T11:06:30.101Z,596.25
2019-03-08T11:07:30.111Z,556.88
2019-03-08T11:08:30.273Z,517.50
2019-03-08T11:09:30.125Z,511.88
2019-03-08T11:10:30.043Z,523.12
2019-03-08T11:11:30.073Z,562.50
2019-03-08T11:12:30.014Z,624.38
2019-03-08T11:13:30.050Z,703.12
2019-03-08T11:14:30.000Z,787.50
2019-03-08T11:15:30.063Z,1845.00
2019-03-08T11:16:29.987Z,753.75
2019-03-08T11:17:30.079Z,635.62
2019-03-08T11:18:29.950Z,551.25
2019-03-08T11:19:29.989Z,511.88
2019-03-08T11:20:29.932Z,517.50
2019-03-08T11:21:31.160Z,506.25
2019-03-08T11:22:29.912Z,461.25
2019-03-08T11:23:29.919Z,427.50
2019-03-08T11:24:29.882Z,399.38
2019-03-08T11:25:35.037Z,376.88
2019-03-08T11:26:30.879Z,371.25
2019-03-08T11:27:29.950Z,365.62
2019-03-08T11:28:29.840Z,388.12
2019-03-08T11:29:29.857Z,427.50
2019-03-08T11:30:29.817Z,478.12
2019-03-08T11:31:29.897Z,506.25
2019-03-08T11:32:29.796Z,900.00
2019-03-08T11:33:29.888Z,680.62
2019-03-08T11:34:29.776Z,703.12
2019-03-08T11:35:36.762Z,720.00
2019-03-08T11:36:29.753Z,866.25
2019-03-08T11:37:31.780Z,3285.00
2019-03-08T11:38:29.732Z,3886.88
2019-03-08T11:39:30.746Z,3420.00
2019-03-08T11:40:29.707Z,2311.88
2019-03-08T11:41:29.735Z,2953.12
2019-03-08T11:42:30.245Z,1068.75
2019-03-08T11:43:29.744Z,838.12
2019-03-08T11:44:29.672Z,714.38
2019-03-08T11:45:29.756Z,646.88
2019-03-08T11:46:29.640Z,652.50
2019-03-08T11:47:29.698Z,725.62
2019-03-08T11:48:29.623Z,1704.38
2019-03-08T11:49:29.680Z,888.75
2019-03-08T11:50:29.610Z,781.88
2019-03-08T11:51:29.705Z,736.88
2019-03-08T11:52:29.590Z,624.38
2019-03-08T11:53:29.606Z,579.38
2019-03-08T11:54:29.727Z,607.50
2019-03-08T11:55:29.619Z,630.00
2019-03-08T11:56:29.536Z,1271.25
2019-03-08T11:57:29.562Z,3746.25
2019-03-08T11:58:29.510Z,2745.00
2019-03-08T11:59:29.544Z,776.25
2019-03-08T12:00:29.497Z,590.62
2019-03-08T12:01:29.557Z,517.50
2019-03-08T12:02:37.525Z,500.62
2019-03-08T12:03:30.453Z,517.50
2019-03-08T12:04:29.476Z,551.25
2019-03-08T12:05:29.433Z,573.75
2019-03-08T12:06:29.489Z,630.00
2019-03-08T12:07:29.422Z,680.62
2019-03-08T12:08:29.504Z,691.88
2019-03-08T12:09:29.390Z,680.62
2019-03-08T12:10:29.415Z,697.50
2019-03-08T12:11:29.368Z,742.50
2019-03-08T12:12:29.460Z,860.62
2019-03-08T12:13:29.344Z,1012.50
2019-03-08T12:14:29.447Z,2244.38
2019-03-08T12:15:29.330Z,5214.38
2019-03-08T12:16:29.359Z,3661.88
2019-03-08T12:17:29.317Z,4095.00
2019-03-08T12:18:29.371Z,4927.50
2019-03-08T12:19:29.285Z,3847.50
2019-03-08T12:20:29.388Z,2047.50
2019-03-08T12:21:29.259Z,1080.00
2019-03-08T12:22:36.286Z,1321.88
2019-03-08T12:23:29.236Z,1518.75
2019-03-08T12:24:31.259Z,2385.00
2019-03-08T12:25:29.221Z,2463.75
2019-03-08T12:26:29.223Z,1265.62
2019-03-08T12:27:29.204Z,990.00
2019-03-08T12:28:29.234Z,877.50
2019-03-08T12:29:29.169Z,776.25
2019-03-08T12:30:29.251Z,736.88
2019-03-08T12:31:29.147Z,748.12
2019-03-08T12:32:29.186Z,860.62
2019-03-08T12:33:29.137Z,1226.25
2019-03-08T12:34:29.177Z,1569.38
2019-03-08T12:35:29.103Z,2694.38
2019-03-08T12:36:29.190Z,5231.25
2019-03-08T12:37:29.119Z,4646.25
2019-03-08T12:38:29.102Z,4201.88
2019-03-08T12:39:29.059Z,4702.50
2019-03-08T12:40:29.115Z,3965.62
2019-03-08T12:41:29.039Z,3605.62
2019-03-08T12:42:29.129Z,1704.38
2019-03-08T12:43:29.032Z,1710.00
2019-03-08T12:44:29.037Z,3448.12
2019-03-08T12:45:28.991Z,1029.38
2019-03-08T12:46:29.054Z,860.62
2019-03-08T12:47:28.971Z,770.62
2019-03-08T12:48:28.990Z,765.00
2019-03-08T12:49:28.949Z,815.62
2019-03-08T12:50:28.982Z,866.25